sensor_id;sensor_type;location;lat;lon;timestamp;temperature;humidity
74540;SHT31;66042;51.090;-115.340;2023-11-18T00:01:49;4.27;50.54
74540;SHT31;66042;51.090;-115.340;2023-11-18T00:04:16;4.25;50.66
74540;SHT31;66042;51.090;-115.340;2023-11-18T00:06:43;4.19;50.77
74540;SHT31;66042;51.090;-115.340;2023-11-18T00:09:11;4.14;50.84
74540;SHT31;66042;51.090;-115.340;2023-11-18T00:11:41;4.07;51.04
74540;SHT31;66042;51.090;-115.340;2023-11-18T00:14:09;4.02;51.06
74540;SHT31;66042;51.090;-115.340;2023-11-18T00:16:38;4.03;51.07
74540;SHT31;66042;51.090;-115.340;2023-11-18T00:19:05;4.02;51.13
74540;SHT31;66042;51.090;-115.340;2023-11-18T00:21:34;3.95;51.28
74540;SHT31;66042;51.090;-115.340;2023-11-18T00:24:01;3.90;51.41
74540;SHT31;66042;51.090;-115.340;2023-11-18T00:26:30;3.84;51.57
74540;SHT31;66042;51.090;-115.340;2023-11-18T00:28:57;3.76;51.85
74540;SHT31;66042;51.090;-115.340;2023-11-18T00:31:25;3.65;52.05
74540;SHT31;66042;51.090;-115.340;2023-11-18T00:33:52;3.55;52.44
74540;SHT31;66042;51.090;-115.340;2023-11-18T00:36:19;3.49;52.66
74540;SHT31;66042;51.090;-115.340;2023-11-18T00:38:47;3.49;52.77
74540;SHT31;66042;51.090;-115.340;2023-11-18T00:41:14;3.52;52.98
74540;SHT31;66042;51.090;-115.340;2023-11-18T00:43:42;3.49;52.92
74540;SHT31;66042;51.090;-115.340;2023-11-18T00:46:10;3.41;52.93
74540;SHT31;66042;51.090;-115.340;2023-11-18T00:48:37;3.39;52.91
74540;SHT31;66042;51.090;-115.340;2023-11-18T00:51:07;3.36;53.17
74540;SHT31;66042;51.090;-115.340;2023-11-18T00:53:34;3.32;53.21
74540;SHT31;66042;51.090;-115.340;2023-11-18T00:56:01;3.30;53.18
74540;SHT31;66042;51.090;-115.340;2023-11-18T00:58:33;3.31;53.13
74540;SHT31;66042;51.090;-115.340;2023-11-18T01:01:04;3.34;53.07
74540;SHT31;66042;51.090;-115.340;2023-11-18T01:03:32;3.37;53.09
74540;SHT31;66042;51.090;-115.340;2023-11-18T01:05:59;3.33;53.12
74540;SHT31;66042;51.090;-115.340;2023-11-18T01:08:26;3.22;53.33
74540;SHT31;66042;51.090;-115.340;2023-11-18T01:10:53;3.18;53.37
74540;SHT31;66042;51.090;-115.340;2023-11-18T01:13:20;3.15;53.40
74540;SHT31;66042;51.090;-115.340;2023-11-18T01:15:48;3.12;53.56
74540;SHT31;66042;51.090;-115.340;2023-11-18T01:18:15;3.11;53.59
74540;SHT31;66042;51.090;-115.340;2023-11-18T01:20:43;3.09;53.61
74540;SHT31;66042;51.090;-115.340;2023-11-18T01:23:12;3.05;53.60
74540;SHT31;66042;51.090;-115.340;2023-11-18T01:25:39;3.05;53.63
74540;SHT31;66042;51.090;-115.340;2023-11-18T01:28:06;3.00;53.78
74540;SHT31;66042;51.090;-115.340;2023-11-18T01:30:34;2.89;53.95
74540;SHT31;66042;51.090;-115.340;2023-11-18T01:33:01;2.80;54.12
74540;SHT31;66042;51.090;-115.340;2023-11-18T01:35:29;2.74;54.35
74540;SHT31;66042;51.090;-115.340;2023-11-18T01:37:56;2.68;54.49
74540;SHT31;66042;51.090;-115.340;2023-11-18T01:40:23;2.67;54.52
74540;SHT31;66042;51.090;-115.340;2023-11-18T01:42:50;2.69;54.47
74540;SHT31;66042;51.090;-115.340;2023-11-18T01:45:17;2.75;54.45
74540;SHT31;66042;51.090;-115.340;2023-11-18T01:47:44;2.78;54.41
74540;SHT31;66042;51.090;-115.340;2023-11-18T01:50:15;2.80;54.35
74540;SHT31;66042;51.090;-115.340;2023-11-18T01:52:44;2.74;54.51
74540;SHT31;66042;51.090;-115.340;2023-11-18T01:55:12;2.59;54.79
74540;SHT31;66042;51.090;-115.340;2023-11-18T01:57:40;2.52;54.92
74540;SHT31;66042;51.090;-115.340;2023-11-18T02:00:09;2.52;54.94
74540;SHT31;66042;51.090;-115.340;2023-11-18T02:02:38;2.47;55.13
74540;SHT31;66042;51.090;-115.340;2023-11-18T02:05:05;2.42;55.27
74540;SHT31;66042;51.090;-115.340;2023-11-18T02:07:33;2.37;55.63
74540;SHT31;66042;51.090;-115.340;2023-11-18T02:10:04;2.27;55.85
74540;SHT31;66042;51.090;-115.340;2023-11-18T02:12:44;2.22;55.95
74540;SHT31;66042;51.090;-115.340;2023-11-18T02:15:22;2.12;56.48
74540;SHT31;66042;51.090;-115.340;2023-11-18T02:17:50;2.02;56.73
74540;SHT31;66042;51.090;-115.340;2023-11-18T02:20:20;1.93;56.90
74540;SHT31;66042;51.090;-115.340;2023-11-18T02:22:48;1.86;56.95
74540;SHT31;66042;51.090;-115.340;2023-11-18T02:25:17;1.80;57.24
74540;SHT31;66042;51.090;-115.340;2023-11-18T02:27:45;1.77;57.26
74540;SHT31;66042;51.090;-115.340;2023-11-18T02:30:13;1.73;57.54
74540;SHT31;66042;51.090;-115.340;2023-11-18T02:32:45;1.70;57.53
74540;SHT31;66042;51.090;-115.340;2023-11-18T02:38:51;1.68;57.51
74540;SHT31;66042;51.090;-115.340;2023-11-18T02:41:21;1.66;57.76
74540;SHT31;66042;51.090;-115.340;2023-11-18T02:43:50;1.63;57.74
74540;SHT31;66042;51.090;-115.340;2023-11-18T02:46:24;1.65;57.59
74540;SHT31;66042;51.090;-115.340;2023-11-18T02:48:52;1.64;57.61
74540;SHT31;66042;51.090;-115.340;2023-11-18T02:51:20;1.66;57.53
74540;SHT31;66042;51.090;-115.340;2023-11-18T02:53:47;1.71;57.46
74540;SHT31;66042;51.090;-115.340;2023-11-18T02:56:15;1.71;57.46
74540;SHT31;66042;51.090;-115.340;2023-11-18T02:58:44;1.71;57.42
74540;SHT31;66042;51.090;-115.340;2023-11-18T03:01:13;1.70;57.39
74540;SHT31;66042;51.090;-115.340;2023-11-18T03:03:40;1.68;57.45
74540;SHT31;66042;51.090;-115.340;2023-11-18T03:06:10;1.66;57.41
74540;SHT31;66042;51.090;-115.340;2023-11-18T03:08:37;1.65;57.47
74540;SHT31;66042;51.090;-115.340;2023-11-18T03:11:07;1.59;57.62
74540;SHT31;66042;51.090;-115.340;2023-11-18T03:13:34;1.57;57.66
74540;SHT31;66042;51.090;-115.340;2023-11-18T03:16:06;1.57;57.59
74540;SHT31;66042;51.090;-115.340;2023-11-18T03:18:38;1.58;57.60
74540;SHT31;66042;51.090;-115.340;2023-11-18T03:21:11;1.56;57.64
74540;SHT31;66042;51.090;-115.340;2023-11-18T03:23:41;1.51;57.79
74540;SHT31;66042;51.090;-115.340;2023-11-18T03:26:11;1.49;57.80
74540;SHT31;66042;51.090;-115.340;2023-11-18T03:28:38;1.46;57.84
74540;SHT31;66042;51.090;-115.340;2023-11-18T03:31:06;1.46;57.89
74540;SHT31;66042;51.090;-115.340;2023-11-18T03:33:34;1.49;57.85
74540;SHT31;66042;51.090;-115.340;2023-11-18T03:36:01;1.48;57.97
74540;SHT31;66042;51.090;-115.340;2023-11-18T03:38:28;1.38;58.14
74540;SHT31;66042;51.090;-115.340;2023-11-18T03:40:55;1.30;58.20
74540;SHT31;66042;51.090;-115.340;2023-11-18T03:43:24;1.25;58.27
74540;SHT31;66042;51.090;-115.340;2023-11-18T03:45:51;1.29;58.22
74540;SHT31;66042;51.090;-115.340;2023-11-18T03:48:22;1.35;58.07
74540;SHT31;66042;51.090;-115.340;2023-11-18T03:50:50;1.39;58.10
74540;SHT31;66042;51.090;-115.340;2023-11-18T03:53:20;1.41;57.96
74540;SHT31;66042;51.090;-115.340;2023-11-18T03:55:46;1.38;58.38
74540;SHT31;66042;51.090;-115.340;2023-11-18T03:58:13;1.28;58.65
74540;SHT31;66042;51.090;-115.340;2023-11-18T04:00:40;1.18;58.95
74540;SHT31;66042;51.090;-115.340;2023-11-18T04:03:08;1.11;59.25
74540;SHT31;66042;51.090;-115.340;2023-11-18T04:05:35;1.04;59.23
74540;SHT31;66042;51.090;-115.340;2023-11-18T04:08:04;1.00;59.08
74540;SHT31;66042;51.090;-115.340;2023-11-18T04:10:34;1.00;59.09
74540;SHT31;66042;51.090;-115.340;2023-11-18T04:13:01;1.04;58.99
74540;SHT31;66042;51.090;-115.340;2023-11-18T04:15:27;1.05;58.96
74540;SHT31;66042;51.090;-115.340;2023-11-18T04:17:54;1.07;58.93
74540;SHT31;66042;51.090;-115.340;2023-11-18T04:20:21;1.06;58.90
74540;SHT31;66042;51.090;-115.340;2023-11-18T04:22:49;1.06;58.87
74540;SHT31;66042;51.090;-115.340;2023-11-18T04:25:16;1.07;58.89
74540;SHT31;66042;51.090;-115.340;2023-11-18T04:27:43;1.04;58.93
74540;SHT31;66042;51.090;-115.340;2023-11-18T04:30:13;1.02;58.93
74540;SHT31;66042;51.090;-115.340;2023-11-18T04:32:56;0.98;59.12
74540;SHT31;66042;51.090;-115.340;2023-11-18T04:35:26;0.92;59.25
74540;SHT31;66042;51.090;-115.340;2023-11-18T04:37:55;0.86;59.59
74540;SHT31;66042;51.090;-115.340;2023-11-18T04:40:23;0.79;59.57
74540;SHT31;66042;51.090;-115.340;2023-11-18T04:42:49;0.75;59.65
74540;SHT31;66042;51.090;-115.340;2023-11-18T04:45:17;0.73;59.78
74540;SHT31;66042;51.090;-115.340;2023-11-18T04:47:44;0.71;59.71
74540;SHT31;66042;51.090;-115.340;2023-11-18T04:50:12;0.73;59.73
74540;SHT31;66042;51.090;-115.340;2023-11-18T04:52:40;0.74;59.65
74540;SHT31;66042;51.090;-115.340;2023-11-18T04:55:07;0.78;59.51
74540;SHT31;66042;51.090;-115.340;2023-11-18T04:57:35;0.81;59.41
74540;SHT31;66042;51.090;-115.340;2023-11-18T05:00:04;0.85;59.29
74540;SHT31;66042;51.090;-115.340;2023-11-18T05:02:39;0.91;59.21
74540;SHT31;66042;51.090;-115.340;2023-11-18T05:05:06;0.95;59.17
74540;SHT31;66042;51.090;-115.340;2023-11-18T05:07:34;0.98;59.02
74540;SHT31;66042;51.090;-115.340;2023-11-18T05:10:04;0.96;59.03
74540;SHT31;66042;51.090;-115.340;2023-11-18T05:12:41;0.86;59.13
74540;SHT31;66042;51.090;-115.340;2023-11-18T05:15:24;0.75;59.39
74540;SHT31;66042;51.090;-115.340;2023-11-18T05:17:59;0.65;59.70
74540;SHT31;66042;51.090;-115.340;2023-11-18T05:21:00;0.63;59.62
74540;SHT31;66042;51.090;-115.340;2023-11-18T05:23:31;0.66;59.60
74540;SHT31;66042;51.090;-115.340;2023-11-18T05:26:04;0.68;59.61
74540;SHT31;66042;51.090;-115.340;2023-11-18T05:28:44;0.68;59.56
74540;SHT31;66042;51.090;-115.340;2023-11-18T05:31:20;0.70;59.50
74540;SHT31;66042;51.090;-115.340;2023-11-18T05:34:18;0.73;59.50
74540;SHT31;66042;51.090;-115.340;2023-11-18T05:36:49;0.74;59.45
74540;SHT31;66042;51.090;-115.340;2023-11-18T05:39:23;0.76;59.34
74540;SHT31;66042;51.090;-115.340;2023-11-18T05:42:09;0.78;59.25
74540;SHT31;66042;51.090;-115.340;2023-11-18T05:44:56;0.68;59.56
74540;SHT31;66042;51.090;-115.340;2023-11-18T05:48:10;0.45;60.12
74540;SHT31;66042;51.090;-115.340;2023-11-18T05:51:01;0.34;60.48
74540;SHT31;66042;51.090;-115.340;2023-11-18T05:53:52;0.22;60.65
74540;SHT31;66042;51.090;-115.340;2023-11-18T05:56:50;0.18;60.80
74540;SHT31;66042;51.090;-115.340;2023-11-18T05:59:25;0.17;60.90
74540;SHT31;66042;51.090;-115.340;2023-11-18T06:02:04;0.17;60.93
74540;SHT31;66042;51.090;-115.340;2023-11-18T06:04:50;0.14;61.12
74540;SHT31;66042;51.090;-115.340;2023-11-18T06:07:39;0.06;61.62
74540;SHT31;66042;51.090;-115.340;2023-11-18T06:10:08;0.04;61.35
74540;SHT31;66042;51.090;-115.340;2023-11-18T06:12:38;0.05;61.34
74540;SHT31;66042;51.090;-115.340;2023-11-18T06:15:41;0.10;61.12
74540;SHT31;66042;51.090;-115.340;2023-11-18T06:18:21;0.17;61.02
74540;SHT31;66042;51.090;-115.340;2023-11-18T06:20:54;0.18;60.91
74540;SHT31;66042;51.090;-115.340;2023-11-18T06:23:24;0.19;60.94
74540;SHT31;66042;51.090;-115.340;2023-11-18T06:25:51;0.13;61.09
74540;SHT31;66042;51.090;-115.340;2023-11-18T06:28:22;0.09;61.14
74540;SHT31;66042;51.090;-115.340;2023-11-18T06:31:02;0.03;61.20
74540;SHT31;66042;51.090;-115.340;2023-11-18T06:33:43;0.02;61.22
74540;SHT31;66042;51.090;-115.340;2023-11-18T06:36:17;0.00;61.23
74540;SHT31;66042;51.090;-115.340;2023-11-18T06:39:17;0.05;61.17
74540;SHT31;66042;51.090;-115.340;2023-11-18T06:41:51;0.05;61.12
74540;SHT31;66042;51.090;-115.340;2023-11-18T06:44:47;0.08;61.05
74540;SHT31;66042;51.090;-115.340;2023-11-18T06:47:38;0.14;60.95
74540;SHT31;66042;51.090;-115.340;2023-11-18T06:50:10;0.16;60.86
74540;SHT31;66042;51.090;-115.340;2023-11-18T06:52:50;0.16;60.81
74540;SHT31;66042;51.090;-115.340;2023-11-18T06:55:48;0.19;60.76
74540;SHT31;66042;51.090;-115.340;2023-11-18T06:58:23;0.22;60.69
74540;SHT31;66042;51.090;-115.340;2023-11-18T07:01:05;0.24;60.70
74540;SHT31;66042;51.090;-115.340;2023-11-18T07:03:48;0.25;60.58
74540;SHT31;66042;51.090;-115.340;2023-11-18T07:06:36;0.29;60.38
74540;SHT31;66042;51.090;-115.340;2023-11-18T07:09:04;0.25;60.30
74540;SHT31;66042;51.090;-115.340;2023-11-18T07:11:46;0.15;60.37
74540;SHT31;66042;51.090;-115.340;2023-11-18T07:14:33;0.15;60.39
74540;SHT31;66042;51.090;-115.340;2023-11-18T07:17:12;0.14;60.42
74540;SHT31;66042;51.090;-115.340;2023-11-18T07:19:44;0.13;60.40
74540;SHT31;66042;51.090;-115.340;2023-11-18T07:22:25;0.12;60.40
74540;SHT31;66042;51.090;-115.340;2023-11-18T07:24:55;0.10;60.46
74540;SHT31;66042;51.090;-115.340;2023-11-18T07:27:29;0.05;60.51
74540;SHT31;66042;51.090;-115.340;2023-11-18T07:30:17;0.07;60.47
74540;SHT31;66042;51.090;-115.340;2023-11-18T07:32:53;0.07;60.44
74540;SHT31;66042;51.090;-115.340;2023-11-18T07:38:16;-0.05;60.64
74540;SHT31;66042;51.090;-115.340;2023-11-18T07:41:00;-0.12;60.84
74540;SHT31;66042;51.090;-115.340;2023-11-18T07:43:34;-0.20;61.18
74540;SHT31;66042;51.090;-115.340;2023-11-18T07:46:20;-0.28;61.36
74540;SHT31;66042;51.090;-115.340;2023-11-18T07:48:50;-0.35;61.65
74540;SHT31;66042;51.090;-115.340;2023-11-18T07:51:27;-0.45;61.94
74540;SHT31;66042;51.090;-115.340;2023-11-18T07:53:59;-0.52;62.02
74540;SHT31;66042;51.090;-115.340;2023-11-18T07:56:52;-0.57;62.25
74540;SHT31;66042;51.090;-115.340;2023-11-18T07:59:48;-0.64;62.58
74540;SHT31;66042;51.090;-115.340;2023-11-18T08:02:37;-0.65;62.41
74540;SHT31;66042;51.090;-115.340;2023-11-18T08:05:14;-0.67;62.55
74540;SHT31;66042;51.090;-115.340;2023-11-18T08:07:45;-0.71;62.87
74540;SHT31;66042;51.090;-115.340;2023-11-18T08:10:18;-0.77;63.30
74540;SHT31;66042;51.090;-115.340;2023-11-18T08:12:47;-0.84;63.41
74540;SHT31;66042;51.090;-115.340;2023-11-18T08:15:17;-0.89;63.82
74540;SHT31;66042;51.090;-115.340;2023-11-18T08:17:44;-0.96;63.96
74540;SHT31;66042;51.090;-115.340;2023-11-18T08:20:12;-0.97;63.60
74540;SHT31;66042;51.090;-115.340;2023-11-18T08:22:50;-0.93;63.47
74540;SHT31;66042;51.090;-115.340;2023-11-18T08:25:41;-0.86;63.32
74540;SHT31;66042;51.090;-115.340;2023-11-18T08:28:09;-0.80;63.16
74540;SHT31;66042;51.090;-115.340;2023-11-18T08:30:39;-0.75;63.05
74540;SHT31;66042;51.090;-115.340;2023-11-18T08:33:07;-0.72;62.95
74540;SHT31;66042;51.090;-115.340;2023-11-18T08:35:39;-0.71;62.96
74540;SHT31;66042;51.090;-115.340;2023-11-18T08:38:13;-0.72;62.97
74540;SHT31;66042;51.090;-115.340;2023-11-18T08:40:40;-0.74;62.96
74540;SHT31;66042;51.090;-115.340;2023-11-18T08:43:36;-0.79;63.07
74540;SHT31;66042;51.090;-115.340;2023-11-18T08:46:07;-0.81;63.21
74540;SHT31;66042;51.090;-115.340;2023-11-18T08:48:34;-0.83;63.12
74540;SHT31;66042;51.090;-115.340;2023-11-18T08:51:01;-0.79;63.01
74540;SHT31;66042;51.090;-115.340;2023-11-18T08:53:28;-0.74;62.89
74540;SHT31;66042;51.090;-115.340;2023-11-18T08:55:55;-0.73;62.88
74540;SHT31;66042;51.090;-115.340;2023-11-18T08:58:23;-0.69;62.82
74540;SHT31;66042;51.090;-115.340;2023-11-18T09:00:59;-0.68;62.65
74540;SHT31;66042;51.090;-115.340;2023-11-18T09:03:52;-0.73;62.75
74540;SHT31;66042;51.090;-115.340;2023-11-18T09:06:19;-0.77;62.71
74540;SHT31;66042;51.090;-115.340;2023-11-18T09:08:53;-0.82;62.92
74540;SHT31;66042;51.090;-115.340;2023-11-18T09:11:23;-0.85;62.92
74540;SHT31;66042;51.090;-115.340;2023-11-18T09:13:54;-0.84;62.90
74540;SHT31;66042;51.090;-115.340;2023-11-18T09:16:25;-0.80;62.91
74540;SHT31;66042;51.090;-115.340;2023-11-18T09:18:55;-0.86;63.04
74540;SHT31;66042;51.090;-115.340;2023-11-18T09:21:24;-0.91;63.13
74540;SHT31;66042;51.090;-115.340;2023-11-18T09:23:54;-0.96;63.23
74540;SHT31;66042;51.090;-115.340;2023-11-18T09:26:24;-1.00;63.43
74540;SHT31;66042;51.090;-115.340;2023-11-18T09:28:55;-1.06;63.75
74540;SHT31;66042;51.090;-115.340;2023-11-18T09:31:22;-1.14;63.98
74540;SHT31;66042;51.090;-115.340;2023-11-18T09:33:50;-1.18;64.08
74540;SHT31;66042;51.090;-115.340;2023-11-18T09:36:23;-1.22;64.15
74540;SHT31;66042;51.090;-115.340;2023-11-18T09:38:50;-1.24;64.16
74540;SHT31;66042;51.090;-115.340;2023-11-18T09:41:19;-1.25;64.18
74540;SHT31;66042;51.090;-115.340;2023-11-18T09:43:52;-1.31;64.27
74540;SHT31;66042;51.090;-115.340;2023-11-18T09:46:28;-1.35;64.32
74540;SHT31;66042;51.090;-115.340;2023-11-18T09:51:58;-1.37;64.42
74540;SHT31;66042;51.090;-115.340;2023-11-18T09:54:40;-1.36;64.44
74540;SHT31;66042;51.090;-115.340;2023-11-18T09:57:32;-1.36;64.62
74540;SHT31;66042;51.090;-115.340;2023-11-18T10:00:07;-1.35;64.48
74540;SHT31;66042;51.090;-115.340;2023-11-18T10:02:52;-1.28;64.32
74540;SHT31;66042;51.090;-115.340;2023-11-18T10:05:22;-1.21;64.13
74540;SHT31;66042;51.090;-115.340;2023-11-18T10:07:52;-1.15;64.02
74540;SHT31;66042;51.090;-115.340;2023-11-18T10:10:19;-1.17;63.98
74540;SHT31;66042;51.090;-115.340;2023-11-18T10:12:47;-1.18;63.94
74540;SHT31;66042;51.090;-115.340;2023-11-18T10:15:23;-1.22;63.96
74540;SHT31;66042;51.090;-115.340;2023-11-18T10:17:52;-1.23;64.07
74540;SHT31;66042;51.090;-115.340;2023-11-18T10:23:11;-1.30;64.18
74540;SHT31;66042;51.090;-115.340;2023-11-18T10:25:46;-1.32;64.17
74540;SHT31;66042;51.090;-115.340;2023-11-18T10:28:31;-1.38;64.60
74540;SHT31;66042;51.090;-115.340;2023-11-18T10:31:03;-1.46;64.65
74540;SHT31;66042;51.090;-115.340;2023-11-18T10:36:07;-1.51;64.62
74540;SHT31;66042;51.090;-115.340;2023-11-18T10:38:49;-1.48;64.55
74540;SHT31;66042;51.090;-115.340;2023-11-18T10:41:21;-1.48;64.52
74540;SHT31;66042;51.090;-115.340;2023-11-18T10:43:49;-1.48;64.56
74540;SHT31;66042;51.090;-115.340;2023-11-18T10:46:40;-1.54;64.87
74540;SHT31;66042;51.090;-115.340;2023-11-18T10:49:18;-1.60;64.97
74540;SHT31;66042;51.090;-115.340;2023-11-18T10:51:46;-1.64;65.20
74540;SHT31;66042;51.090;-115.340;2023-11-18T10:54:13;-1.65;65.15
74540;SHT31;66042;51.090;-115.340;2023-11-18T10:56:46;-1.64;65.07
74540;SHT31;66042;51.090;-115.340;2023-11-18T10:59:21;-1.60;64.89
74540;SHT31;66042;51.090;-115.340;2023-11-18T11:01:49;-1.54;64.78
74540;SHT31;66042;51.090;-115.340;2023-11-18T11:04:16;-1.47;64.57
74540;SHT31;66042;51.090;-115.340;2023-11-18T11:06:46;-1.46;64.49
74540;SHT31;66042;51.090;-115.340;2023-11-18T11:09:19;-1.52;64.58
74540;SHT31;66042;51.090;-115.340;2023-11-18T11:11:56;-1.63;64.96
74540;SHT31;66042;51.090;-115.340;2023-11-18T11:14:33;-1.70;65.07
74540;SHT31;66042;51.090;-115.340;2023-11-18T11:17:07;-1.73;65.21
74540;SHT31;66042;51.090;-115.340;2023-11-18T11:20:05;-1.76;65.18
74540;SHT31;66042;51.090;-115.340;2023-11-18T11:23:27;-1.78;65.26
74540;SHT31;66042;51.090;-115.340;2023-11-18T11:29:01;-1.76;65.17
74540;SHT31;66042;51.090;-115.340;2023-11-18T11:31:43;-1.64;64.91
74540;SHT31;66042;51.090;-115.340;2023-11-18T11:34:18;-1.57;64.71
74540;SHT31;66042;51.090;-115.340;2023-11-18T11:36:49;-1.50;64.56
74540;SHT31;66042;51.090;-115.340;2023-11-18T11:39:20;-1.41;64.34
74540;SHT31;66042;51.090;-115.340;2023-11-18T11:41:55;-1.40;64.12
74540;SHT31;66042;51.090;-115.340;2023-11-18T11:44:24;-1.40;64.07
74540;SHT31;66042;51.090;-115.340;2023-11-18T11:46:55;-1.40;64.00
74540;SHT31;66042;51.090;-115.340;2023-11-18T11:49:31;-1.37;63.91
74540;SHT31;66042;51.090;-115.340;2023-11-18T11:52:23;-1.39;63.87
74540;SHT31;66042;51.090;-115.340;2023-11-18T11:55:15;-1.39;63.81
74540;SHT31;66042;51.090;-115.340;2023-11-18T11:58:25;-1.35;63.73
74540;SHT31;66042;51.090;-115.340;2023-11-18T12:01:15;-1.33;63.61
74540;SHT31;66042;51.090;-115.340;2023-11-18T12:03:56;-1.34;63.60
74540;SHT31;66042;51.090;-115.340;2023-11-18T12:06:24;-1.33;63.57
74540;SHT31;66042;51.090;-115.340;2023-11-18T12:08:54;-1.34;63.52
74540;SHT31;66042;51.090;-115.340;2023-11-18T12:11:23;-1.32;63.50
74540;SHT31;66042;51.090;-115.340;2023-11-18T12:14:06;-1.31;63.48
74540;SHT31;66042;51.090;-115.340;2023-11-18T12:19:46;-1.38;63.46
74540;SHT31;66042;51.090;-115.340;2023-11-18T12:22:19;-1.52;63.73
74540;SHT31;66042;51.090;-115.340;2023-11-18T12:32:58;-2.05;65.53
74540;SHT31;66042;51.090;-115.340;2023-11-18T12:44:15;-2.19;65.65
74540;SHT31;66042;51.090;-115.340;2023-11-18T12:47:03;-2.20;65.60
74540;SHT31;66042;51.090;-115.340;2023-11-18T12:49:40;-2.16;65.62
74540;SHT31;66042;51.090;-115.340;2023-11-18T12:52:09;-2.20;65.61
74540;SHT31;66042;51.090;-115.340;2023-11-18T12:54:40;-2.23;65.77
74540;SHT31;66042;51.090;-115.340;2023-11-18T12:57:11;-2.29;66.13
74540;SHT31;66042;51.090;-115.340;2023-11-18T12:59:42;-2.29;65.96
74540;SHT31;66042;51.090;-115.340;2023-11-18T13:02:10;-2.28;66.02
74540;SHT31;66042;51.090;-115.340;2023-11-18T13:04:48;-2.28;66.03
74540;SHT31;66042;51.090;-115.340;2023-11-18T13:07:16;-2.27;65.92
74540;SHT31;66042;51.090;-115.340;2023-11-18T13:09:44;-2.24;65.89
74540;SHT31;66042;51.090;-115.340;2023-11-18T13:12:11;-2.28;66.01
74540;SHT31;66042;51.090;-115.340;2023-11-18T13:14:41;-2.38;66.40
74540;SHT31;66042;51.090;-115.340;2023-11-18T13:17:09;-2.47;66.67
74540;SHT31;66042;51.090;-115.340;2023-11-18T13:19:41;-2.54;67.00
74540;SHT31;66042;51.090;-115.340;2023-11-18T13:22:10;-2.59;67.17
74540;SHT31;66042;51.090;-115.340;2023-11-18T13:24:40;-2.60;67.30
74540;SHT31;66042;51.090;-115.340;2023-11-18T13:27:18;-2.59;67.29
74540;SHT31;66042;51.090;-115.340;2023-11-18T13:29:46;-2.59;67.08
74540;SHT31;66042;51.090;-115.340;2023-11-18T13:32:15;-2.58;67.13
74540;SHT31;66042;51.090;-115.340;2023-11-18T13:34:48;-2.58;67.09
74540;SHT31;66042;51.090;-115.340;2023-11-18T13:37:17;-2.59;67.15
74540;SHT31;66042;51.090;-115.340;2023-11-18T13:39:54;-2.60;67.33
74540;SHT31;66042;51.090;-115.340;2023-11-18T13:42:22;-2.63;67.34
74540;SHT31;66042;51.090;-115.340;2023-11-18T13:45:00;-2.61;67.28
74540;SHT31;66042;51.090;-115.340;2023-11-18T13:47:49;-2.62;67.32
74540;SHT31;66042;51.090;-115.340;2023-11-18T13:50:19;-2.58;67.22
74540;SHT31;66042;51.090;-115.340;2023-11-18T13:52:47;-2.57;67.11
74540;SHT31;66042;51.090;-115.340;2023-11-18T13:55:17;-2.58;67.16
74540;SHT31;66042;51.090;-115.340;2023-11-18T13:57:54;-2.60;67.24
74540;SHT31;66042;51.090;-115.340;2023-11-18T14:00:24;-2.62;67.34
74540;SHT31;66042;51.090;-115.340;2023-11-18T14:02:56;-2.65;67.53
74540;SHT31;66042;51.090;-115.340;2023-11-18T14:05:24;-2.68;67.59
74540;SHT31;66042;51.090;-115.340;2023-11-18T14:07:52;-2.67;67.70
74540;SHT31;66042;51.090;-115.340;2023-11-18T14:10:25;-2.62;67.42
74540;SHT31;66042;51.090;-115.340;2023-11-18T14:13:03;-2.58;67.37
74540;SHT31;66042;51.090;-115.340;2023-11-18T14:15:33;-2.54;67.21
74540;SHT31;66042;51.090;-115.340;2023-11-18T14:18:02;-2.55;67.33
74540;SHT31;66042;51.090;-115.340;2023-11-18T14:20:36;-2.57;67.35
74540;SHT31;66042;51.090;-115.340;2023-11-18T14:23:03;-2.55;67.24
74540;SHT31;66042;51.090;-115.340;2023-11-18T14:25:30;-2.52;67.11
74540;SHT31;66042;51.090;-115.340;2023-11-18T14:27:58;-2.51;67.14
74540;SHT31;66042;51.090;-115.340;2023-11-18T14:30:25;-2.53;67.26
74540;SHT31;66042;51.090;-115.340;2023-11-18T14:32:52;-2.57;67.43
74540;SHT31;66042;51.090;-115.340;2023-11-18T14:35:19;-2.58;67.26
74540;SHT31;66042;51.090;-115.340;2023-11-18T14:37:48;-2.54;67.12
74540;SHT31;66042;51.090;-115.340;2023-11-18T14:40:15;-2.48;67.01
74540;SHT31;66042;51.090;-115.340;2023-11-18T14:42:46;-2.44;66.82
74540;SHT31;66042;51.090;-115.340;2023-11-18T14:45:17;-2.42;66.70
74540;SHT31;66042;51.090;-115.340;2023-11-18T14:47:45;-2.41;66.65
74540;SHT31;66042;51.090;-115.340;2023-11-18T14:50:22;-2.37;66.50
74540;SHT31;66042;51.090;-115.340;2023-11-18T14:52:51;-2.33;66.35
74540;SHT31;66042;51.090;-115.340;2023-11-18T14:55:27;-2.32;66.20
74540;SHT31;66042;51.090;-115.340;2023-11-18T14:58:02;-2.29;66.05
74540;SHT31;66042;51.090;-115.340;2023-11-18T15:00:32;-2.32;66.02
74540;SHT31;66042;51.090;-115.340;2023-11-18T15:02:59;-2.33;66.02
74540;SHT31;66042;51.090;-115.340;2023-11-18T15:05:26;-2.33;66.02
74540;SHT31;66042;51.090;-115.340;2023-11-18T15:07:53;-2.38;66.10
74540;SHT31;66042;51.090;-115.340;2023-11-18T15:10:24;-2.37;66.04
74540;SHT31;66042;51.090;-115.340;2023-11-18T15:12:57;-2.33;65.98
74540;SHT31;66042;51.090;-115.340;2023-11-18T15:15:27;-2.26;65.99
74540;SHT31;66042;51.090;-115.340;2023-11-18T15:18:00;-2.14;65.69
74540;SHT31;66042;51.090;-115.340;2023-11-18T15:20:41;-2.08;65.42
74540;SHT31;66042;51.090;-115.340;2023-11-18T15:23:09;-2.10;65.30
74540;SHT31;66042;51.090;-115.340;2023-11-18T15:25:38;-2.15;65.27
74540;SHT31;66042;51.090;-115.340;2023-11-18T15:28:05;-2.18;65.29
74540;SHT31;66042;51.090;-115.340;2023-11-18T15:30:36;-2.22;65.27
74540;SHT31;66042;51.090;-115.340;2023-11-18T15:33:03;-2.29;65.45
74540;SHT31;66042;51.090;-115.340;2023-11-18T15:35:30;-2.32;65.56
74540;SHT31;66042;51.090;-115.340;2023-11-18T15:37:57;-2.38;65.73
74540;SHT31;66042;51.090;-115.340;2023-11-18T15:40:24;-2.47;66.07
74540;SHT31;66042;51.090;-115.340;2023-11-18T15:42:51;-2.54;66.23
74540;SHT31;66042;51.090;-115.340;2023-11-18T15:45:20;-2.60;66.53
74540;SHT31;66042;51.090;-115.340;2023-11-18T15:47:54;-2.63;66.58
74540;SHT31;66042;51.090;-115.340;2023-11-18T15:50:21;-2.69;66.93
74540;SHT31;66042;51.090;-115.340;2023-11-18T15:52:49;-2.74;67.13
74540;SHT31;66042;51.090;-115.340;2023-11-18T15:55:19;-2.73;66.96
74540;SHT31;66042;51.090;-115.340;2023-11-18T15:57:50;-2.71;67.00
74540;SHT31;66042;51.090;-115.340;2023-11-18T16:00:19;-2.69;66.95
74540;SHT31;66042;51.090;-115.340;2023-11-18T16:02:53;-2.63;66.83
74540;SHT31;66042;51.090;-115.340;2023-11-18T16:05:23;-2.60;66.78
74540;SHT31;66042;51.090;-115.340;2023-11-18T16:07:54;-2.52;66.64